sensor_id;sensor_type;location;lat;lon;timestamp;P1;durP1;ratioP1;P2;durP2;ratioP2
79124;SDS011;68527;39.470;-0.376;2024-03-23T00:53:26;4.80;;;3.60;;
79124;SDS011;68527;39.470;-0.376;2024-03-23T00:55:51;5.30;;;4.00;;
79124;SDS011;68527;39.470;-0.376;2024-03-23T00:58:17;6.20;;;4.40;;
79124;SDS011;68527;39.470;-0.376;2024-03-23T01:00:42;5.40;;;4.00;;
79124;SDS011;68527;39.470;-0.376;2024-03-23T01:05:33;5.10;;;4.00;;
79124;SDS011;68527;39.470;-0.376;2024-03-23T01:07:59;6.40;;;3.70;;
79124;SDS011;68527;39.470;-0.376;2024-03-23T01:12:50;6.50;;;3.80;;
79124;SDS011;68527;39.470;-0.376;2024-03-23T01:15:16;7.00;;;4.00;;
79124;SDS011;68527;39.470;-0.376;2024-03-23T01:20:07;5.20;;;3.20;;
79124;SDS011;68527;39.470;-0.376;2024-03-23T01:22:33;5.90;;;3.50;;
79124;SDS011;68527;39.470;-0.376;2024-03-23T01:24:58;5.50;;;3.30;;
79124;SDS011;68527;39.470;-0.376;2024-03-23T01:27:24;6.00;;;3.90;;
79124;SDS011;68527;39.470;-0.376;2024-03-23T01:29:50;5.00;;;3.70;;
79124;SDS011;68527;39.470;-0.376;2024-03-23T01:32:17;4.80;;;3.50;;
79124;SDS011;68527;39.470;-0.376;2024-03-23T01:34:43;5.00;;;3.50;;
79124;SDS011;68527;39.470;-0.376;2024-03-23T01:37:09;5.10;;;3.60;;
79124;SDS011;68527;39.470;-0.376;2024-03-23T01:42:00;4.40;;;3.20;;
79124;SDS011;68527;39.470;-0.376;2024-03-23T01:44:26;5.90;;;3.50;;
79124;SDS011;68527;39.470;-0.376;2024-03-23T01:49:17;5.00;;;3.40;;
79124;SDS011;68527;39.470;-0.376;2024-03-23T01:51:42;4.10;;;3.30;;
79124;SDS011;68527;39.470;-0.376;2024-03-23T01:54:08;5.00;;;3.70;;
79124;SDS011;68527;39.470;-0.376;2024-03-23T01:59:06;5.10;;;3.40;;
79124;SDS011;68527;39.470;-0.376;2024-03-23T02:01:32;4.80;;;3.50;;
79124;SDS011;68527;39.470;-0.376;2024-03-23T02:03:58;5.50;;;3.30;;
79124;SDS011;68527;39.470;-0.376;2024-03-23T02:06:24;4.90;;;3.30;;
79124;SDS011;68527;39.470;-0.376;2024-03-23T02:08:50;3.90;;;3.00;;
79124;SDS011;68527;39.470;-0.376;2024-03-23T02:11:16;4.50;;;3.40;;
79124;SDS011;68527;39.470;-0.376;2024-03-23T02:13:42;3.80;;;3.10;;
79124;SDS011;68527;39.470;-0.376;2024-03-23T02:16:08;5.40;;;3.20;;
79124;SDS011;68527;39.470;-0.376;2024-03-23T02:18:34;4.10;;;3.20;;
79124;SDS011;68527;39.470;-0.376;2024-03-23T02:20:59;5.80;;;3.20;;
79124;SDS011;68527;39.470;-0.376;2024-03-23T02:23:25;5.50;;;2.80;;
79124;SDS011;68527;39.470;-0.376;2024-03-23T02:25:51;4.70;;;2.90;;
79124;SDS011;68527;39.470;-0.376;2024-03-23T02:28:18;4.40;;;3.00;;
79124;SDS011;68527;39.470;-0.376;2024-03-23T02:30:44;4.00;;;3.10;;
79124;SDS011;68527;39.470;-0.376;2024-03-23T02:33:10;4.50;;;3.30;;
79124;SDS011;68527;39.470;-0.376;2024-03-23T02:35:36;4.10;;;2.80;;
79124;SDS011;68527;39.470;-0.376;2024-03-23T02:40:27;4.00;;;2.90;;
79124;SDS011;68527;39.470;-0.376;2024-03-23T02:42:53;4.10;;;2.90;;
79124;SDS011;68527;39.470;-0.376;2024-03-23T02:47:44;3.80;;;3.00;;
79124;SDS011;68527;39.470;-0.376;2024-03-23T02:50:10;3.70;;;2.60;;
79124;SDS011;68527;39.470;-0.376;2024-03-23T02:52:36;6.00;;;3.30;;
79124;SDS011;68527;39.470;-0.376;2024-03-23T02:55:02;4.40;;;3.10;;
79124;SDS011;68527;39.470;-0.376;2024-03-23T02:57:28;4.30;;;2.90;;
79124;SDS011;68527;39.470;-0.376;2024-03-23T03:02:19;3.90;;;2.60;;
79124;SDS011;68527;39.470;-0.376;2024-03-23T03:04:46;4.50;;;2.90;;
79124;SDS011;68527;39.470;-0.376;2024-03-23T03:07:11;4.80;;;3.30;;
79124;SDS011;68527;39.470;-0.376;2024-03-23T03:09:37;3.70;;;2.70;;
79124;SDS011;68527;39.470;-0.376;2024-03-23T03:12:05;3.80;;;2.80;;
79124;SDS011;68527;39.470;-0.376;2024-03-23T03:14:31;4.50;;;2.70;;
79124;SDS011;68527;39.470;-0.376;2024-03-23T03:16:56;2.90;;;2.60;;
79124;SDS011;68527;39.470;-0.376;2024-03-23T03:21:47;5.60;;;2.80;;
79124;SDS011;68527;39.470;-0.376;2024-03-23T03:24:13;4.70;;;3.10;;
79124;SDS011;68527;39.470;-0.376;2024-03-23T03:26:39;3.40;;;2.40;;
79124;SDS011;68527;39.470;-0.376;2024-03-23T03:29:05;3.10;;;2.50;;
79124;SDS011;68527;39.470;-0.376;2024-03-23T03:31:30;3.80;;;2.50;;
79124;SDS011;68527;39.470;-0.376;2024-03-23T03:36:21;3.80;;;2.30;;
79124;SDS011;68527;39.470;-0.376;2024-03-23T03:38:47;3.90;;;2.90;;
79124;SDS011;68527;39.470;-0.376;2024-03-23T03:41:12;4.90;;;2.60;;
79124;SDS011;68527;39.470;-0.376;2024-03-23T03:43:38;4.70;;;2.80;;
79124;SDS011;68527;39.470;-0.376;2024-03-23T03:46:03;3.70;;;2.50;;
79124;SDS011;68527;39.470;-0.376;2024-03-23T03:48:29;4.70;;;2.80;;
79124;SDS011;68527;39.470;-0.376;2024-03-23T03:50:55;2.60;;;2.30;;
79124;SDS011;68527;39.470;-0.376;2024-03-23T03:53:20;3.80;;;2.20;;
79124;SDS011;68527;39.470;-0.376;2024-03-23T03:55:46;3.80;;;2.70;;
79124;SDS011;68527;39.470;-0.376;2024-03-23T03:58:12;3.80;;;2.10;;
79124;SDS011;68527;39.470;-0.376;2024-03-23T04:03:03;4.00;;;2.10;;
79124;SDS011;68527;39.470;-0.376;2024-03-23T04:05:29;3.90;;;2.60;;
79124;SDS011;68527;39.470;-0.376;2024-03-23T04:07:54;3.20;;;2.20;;
79124;SDS011;68527;39.470;-0.376;2024-03-23T04:12:46;4.80;;;2.50;;
79124;SDS011;68527;39.470;-0.376;2024-03-23T04:15:12;3.20;;;2.20;;
79124;SDS011;68527;39.470;-0.376;2024-03-23T04:17:38;5.10;;;2.50;;
79124;SDS011;68527;39.470;-0.376;2024-03-23T04:20:04;3.60;;;2.30;;
79124;SDS011;68527;39.470;-0.376;2024-03-23T04:22:34;2.60;;;2.00;;
79124;SDS011;68527;39.470;-0.376;2024-03-23T04:25:00;4.50;;;2.60;;
79124;SDS011;68527;39.470;-0.376;2024-03-23T04:27:32;3.00;;;2.10;;
79124;SDS011;68527;39.470;-0.376;2024-03-23T04:30:00;2.70;;;2.00;;
79124;SDS011;68527;39.470;-0.376;2024-03-23T04:32:27;5.10;;;2.70;;
79124;SDS011;68527;39.470;-0.376;2024-03-23T04:34:53;5.00;;;2.50;;
79124;SDS011;68527;39.470;-0.376;2024-03-23T04:37:19;3.10;;;2.00;;
79124;SDS011;68527;39.470;-0.376;2024-03-23T04:39:46;3.80;;;2.50;;
79124;SDS011;68527;39.470;-0.376;2024-03-23T04:42:14;5.50;;;2.30;;
79124;SDS011;68527;39.470;-0.376;2024-03-23T04:44:40;4.00;;;2.00;;
79124;SDS011;68527;39.470;-0.376;2024-03-23T04:49:31;3.60;;;2.20;;
79124;SDS011;68527;39.470;-0.376;2024-03-23T04:51:56;3.10;;;2.00;;
79124;SDS011;68527;39.470;-0.376;2024-03-23T04:56:47;3.30;;;2.50;;
79124;SDS011;68527;39.470;-0.376;2024-03-23T04:59:13;3.00;;;2.20;;
79124;SDS011;68527;39.470;-0.376;2024-03-23T05:01:38;4.80;;;2.60;;
79124;SDS011;68527;39.470;-0.376;2024-03-23T05:04:07;3.20;;;2.10;;
79124;SDS011;68527;39.470;-0.376;2024-03-23T05:06:32;2.60;;;2.10;;
79124;SDS011;68527;39.470;-0.376;2024-03-23T05:08:59;4.40;;;2.40;;
79124;SDS011;68527;39.470;-0.376;2024-03-23T05:11:27;3.50;;;2.40;;
79124;SDS011;68527;39.470;-0.376;2024-03-23T05:13:53;4.20;;;2.30;;
79124;SDS011;68527;39.470;-0.376;2024-03-23T05:16:18;3.90;;;1.90;;
79124;SDS011;68527;39.470;-0.376;2024-03-23T05:21:09;3.20;;;2.30;;
79124;SDS011;68527;39.470;-0.376;2024-03-23T05:23:35;5.80;;;2.30;;
79124;SDS011;68527;39.470;-0.376;2024-03-23T05:28:26;3.40;;;2.20;;
79124;SDS011;68527;39.470;-0.376;2024-03-23T05:30:55;3.70;;;2.30;;
79124;SDS011;68527;39.470;-0.376;2024-03-23T05:33:22;3.60;;;2.40;;
79124;SDS011;68527;39.470;-0.376;2024-03-23T05:35:55;4.70;;;2.40;;
79124;SDS011;68527;39.470;-0.376;2024-03-23T05:38:25;4.20;;;2.30;;
79124;SDS011;68527;39.470;-0.376;2024-03-23T05:43:23;4.00;;;2.80;;
79124;SDS011;68527;39.470;-0.376;2024-03-23T05:48:21;4.30;;;2.10;;
79124;SDS011;68527;39.470;-0.376;2024-03-23T05:50:48;5.50;;;2.30;;
79124;SDS011;68527;39.470;-0.376;2024-03-23T05:53:17;4.90;;;2.30;;
79124;SDS011;68527;39.470;-0.376;2024-03-23T05:55:43;4.40;;;2.40;;
79124;SDS011;68527;39.470;-0.376;2024-03-23T05:58:09;6.30;;;2.50;;
79124;SDS011;68527;39.470;-0.376;2024-03-23T06:00:35;2.90;;;2.30;;
79124;SDS011;68527;39.470;-0.376;2024-03-23T06:03:01;3.70;;;2.40;;
79124;SDS011;68527;39.470;-0.376;2024-03-23T06:05:26;4.30;;;2.30;;
79124;SDS011;68527;39.470;-0.376;2024-03-23T06:10:18;3.70;;;2.20;;
79124;SDS011;68527;39.470;-0.376;2024-03-23T06:12:45;4.40;;;2.10;;
79124;SDS011;68527;39.470;-0.376;2024-03-23T06:15:11;4.40;;;1.80;;
79124;SDS011;68527;39.470;-0.376;2024-03-23T06:17:37;4.80;;;2.50;;
79124;SDS011;68527;39.470;-0.376;2024-03-23T06:20:03;4.00;;;2.40;;
79124;SDS011;68527;39.470;-0.376;2024-03-23T06:22:31;4.10;;;2.20;;
79124;SDS011;68527;39.470;-0.376;2024-03-23T06:24:57;3.90;;;1.80;;
79124;SDS011;68527;39.470;-0.376;2024-03-23T06:27:22;4.10;;;2.20;;
79124;SDS011;68527;39.470;-0.376;2024-03-23T06:29:48;5.40;;;2.50;;
79124;SDS011;68527;39.470;-0.376;2024-03-23T06:32:13;4.60;;;2.50;;
79124;SDS011;68527;39.470;-0.376;2024-03-23T06:34:42;4.80;;;2.20;;
79124;SDS011;68527;39.470;-0.376;2024-03-23T06:37:08;4.30;;;2.00;;
79124;SDS011;68527;39.470;-0.376;2024-03-23T06:39:38;4.70;;;2.10;;
79124;SDS011;68527;39.470;-0.376;2024-03-23T06:42:04;3.90;;;2.10;;
79124;SDS011;68527;39.470;-0.376;2024-03-23T06:44:30;4.50;;;2.10;;
79124;SDS011;68527;39.470;-0.376;2024-03-23T06:49:22;3.30;;;1.90;;
79124;SDS011;68527;39.470;-0.376;2024-03-23T06:51:48;3.70;;;2.40;;
79124;SDS011;68527;39.470;-0.376;2024-03-23T06:56:40;5.00;;;2.10;;
79124;SDS011;68527;39.470;-0.376;2024-03-23T06:59:06;2.30;;;1.40;;
79124;SDS011;68527;39.470;-0.376;2024-03-23T07:01:32;3.10;;;2.10;;
79124;SDS011;68527;39.470;-0.376;2024-03-23T07:06:23;3.30;;;2.00;;
79124;SDS011;68527;39.470;-0.376;2024-03-23T07:08:48;3.90;;;2.10;;
79124;SDS011;68527;39.470;-0.376;2024-03-23T07:11:23;3.10;;;1.90;;
79124;SDS011;68527;39.470;-0.376;2024-03-23T07:13:49;2.90;;;2.10;;
79124;SDS011;68527;39.470;-0.376;2024-03-23T07:16:16;3.40;;;2.10;;
79124;SDS011;68527;39.470;-0.376;2024-03-23T07:18:42;4.50;;;2.40;;
79124;SDS011;68527;39.470;-0.376;2024-03-23T07:21:07;6.90;;;2.10;;
79124;SDS011;68527;39.470;-0.376;2024-03-23T07:23:33;3.60;;;1.90;;
79124;SDS011;68527;39.470;-0.376;2024-03-23T07:25:59;3.20;;;2.20;;
79124;SDS011;68527;39.470;-0.376;2024-03-23T07:28:26;8.70;;;2.20;;
79124;SDS011;68527;39.470;-0.376;2024-03-23T07:31:27;5.00;;;2.20;;
79124;SDS011;68527;39.470;-0.376;2024-03-23T07:33:48;3.50;;;2.10;;
79124;SDS011;68527;39.470;-0.376;2024-03-23T07:36:14;3.20;;;1.90;;
79124;SDS011;68527;39.470;-0.376;2024-03-23T07:38:43;5.30;;;1.90;;
79124;SDS011;68527;39.470;-0.376;2024-03-23T07:41:12;6.50;;;2.70;;
79124;SDS011;68527;39.470;-0.376;2024-03-23T07:43:40;4.40;;;2.10;;
79124;SDS011;68527;39.470;-0.376;2024-03-23T07:48:31;2.70;;;1.80;;
79124;SDS011;68527;39.470;-0.376;2024-03-23T07:53:27;5.90;;;2.30;;
79124;SDS011;68527;39.470;-0.376;2024-03-23T07:56:14;3.80;;;1.90;;
79124;SDS011;68527;39.470;-0.376;2024-03-23T07:58:40;5.90;;;2.40;;
79124;SDS011;68527;39.470;-0.376;2024-03-23T08:01:06;6.00;;;2.70;;
79124;SDS011;68527;39.470;-0.376;2024-03-23T08:03:33;6.40;;;1.70;;
79124;SDS011;68527;39.470;-0.376;2024-03-23T08:06:09;7.40;;;2.60;;
79124;SDS011;68527;39.470;-0.376;2024-03-23T08:08:36;5.20;;;2.10;;
79124;SDS011;68527;39.470;-0.376;2024-03-23T08:11:02;4.90;;;2.50;;
79124;SDS011;68527;39.470;-0.376;2024-03-23T08:13:28;2.80;;;1.80;;
79124;SDS011;68527;39.470;-0.376;2024-03-23T08:15:58;6.30;;;2.10;;
79124;SDS011;68527;39.470;-0.376;2024-03-23T08:18:24;8.80;;;2.40;;
79124;SDS011;68527;39.470;-0.376;2024-03-23T08:20:56;5.00;;;2.10;;
79124;SDS011;68527;39.470;-0.376;2024-03-23T08:23:27;6.30;;;2.40;;
79124;SDS011;68527;39.470;-0.376;2024-03-23T08:26:02;5.00;;;2.40;;
79124;SDS011;68527;39.470;-0.376;2024-03-23T08:28:32;8.60;;;2.50;;
79124;SDS011;68527;39.470;-0.376;2024-03-23T08:31:00;3.90;;;2.10;;
79124;SDS011;68527;39.470;-0.376;2024-03-23T08:33:27;6.20;;;2.20;;
79124;SDS011;68527;39.470;-0.376;2024-03-23T08:36:03;8.10;;;2.30;;
79124;SDS011;68527;39.470;-0.376;2024-03-23T08:38:29;7.70;;;2.00;;
79124;SDS011;68527;39.470;-0.376;2024-03-23T08:41:02;10.40;;;2.80;;
79124;SDS011;68527;39.470;-0.376;2024-03-23T08:43:37;4.50;;;2.10;;
79124;SDS011;68527;39.470;-0.376;2024-03-23T08:46:04;8.20;;;2.40;;
79124;SDS011;68527;39.470;-0.376;2024-03-23T08:48:34;7.50;;;2.70;;
79124;SDS011;68527;39.470;-0.376;2024-03-23T08:51:01;8.00;;;2.80;;
79124;SDS011;68527;39.470;-0.376;2024-03-23T08:53:28;7.20;;;2.90;;
79124;SDS011;68527;39.470;-0.376;2024-03-23T08:55:57;5.40;;;2.50;;
79124;SDS011;68527;39.470;-0.376;2024-03-23T08:58:24;6.20;;;2.30;;
79124;SDS011;68527;39.470;-0.376;2024-03-23T09:00:54;9.10;;;2.70;;
79124;SDS011;68527;39.470;-0.376;2024-03-23T09:03:24;7.70;;;3.00;;
79124;SDS011;68527;39.470;-0.376;2024-03-23T09:05:51;5.40;;;2.50;;
79124;SDS011;68527;39.470;-0.376;2024-03-23T09:08:17;6.30;;;2.80;;
79124;SDS011;68527;39.470;-0.376;2024-03-23T09:10:43;6.40;;;2.30;;
79124;SDS011;68527;39.470;-0.376;2024-03-23T09:13:09;3.90;;;2.40;;
79124;SDS011;68527;39.470;-0.376;2024-03-23T09:15:35;5.00;;;2.80;;
79124;SDS011;68527;39.470;-0.376;2024-03-23T09:18:02;5.10;;;2.80;;
79124;SDS011;68527;39.470;-0.376;2024-03-23T09:20:28;6.90;;;2.80;;
79124;SDS011;68527;39.470;-0.376;2024-03-23T09:22:53;6.10;;;2.50;;
79124;SDS011;68527;39.470;-0.376;2024-03-23T09:25:19;10.00;;;2.60;;
79124;SDS011;68527;39.470;-0.376;2024-03-23T09:27:48;7.70;;;2.80;;
79124;SDS011;68527;39.470;-0.376;2024-03-23T09:30:14;7.30;;;3.30;;
79124;SDS011;68527;39.470;-0.376;2024-03-23T09:32:43;8.70;;;2.50;;
79124;SDS011;68527;39.470;-0.376;2024-03-23T09:35:10;7.00;;;3.30;;
79124;SDS011;68527;39.470;-0.376;2024-03-23T09:37:36;4.90;;;2.80;;
79124;SDS011;68527;39.470;-0.376;2024-03-23T09:40:02;8.20;;;2.90;;
79124;SDS011;68527;39.470;-0.376;2024-03-23T09:42:28;6.70;;;2.70;;
79124;SDS011;68527;39.470;-0.376;2024-03-23T09:44:54;7.90;;;2.50;;
79124;SDS011;68527;39.470;-0.376;2024-03-23T09:47:22;5.40;;;2.50;;
79124;SDS011;68527;39.470;-0.376;2024-03-23T09:49:50;7.70;;;2.50;;
79124;SDS011;68527;39.470;-0.376;2024-03-23T09:54:41;8.20;;;2.50;;
79124;SDS011;68527;39.470;-0.376;2024-03-23T09:57:06;5.10;;;2.80;;
79124;SDS011;68527;39.470;-0.376;2024-03-23T09:59:32;6.40;;;3.10;;
79124;SDS011;68527;39.470;-0.376;2024-03-23T10:01:59;7.50;;;2.90;;
79124;SDS011;68527;39.470;-0.376;2024-03-23T10:04:36;6.60;;;3.00;;
79124;SDS011;68527;39.470;-0.376;2024-03-23T10:07:10;5.90;;;3.00;;
79124;SDS011;68527;39.470;-0.376;2024-03-23T10:09:40;6.30;;;3.00;;
79124;SDS011;68527;39.470;-0.376;2024-03-23T10:12:12;4.60;;;2.30;;
79124;SDS011;68527;39.470;-0.376;2024-03-23T10:14:41;4.90;;;2.80;;
79124;SDS011;68527;39.470;-0.376;2024-03-23T10:17:20;5.20;;;3.30;;
79124;SDS011;68527;39.470;-0.376;2024-03-23T10:19:50;6.70;;;2.90;;
79124;SDS011;68527;39.470;-0.376;2024-03-23T10:24:46;5.40;;;2.50;;
79124;SDS011;68527;39.470;-0.376;2024-03-23T10:27:18;5.90;;;2.90;;
79124;SDS011;68527;39.470;-0.376;2024-03-23T10:29:45;4.10;;;2.70;;
79124;SDS011;68527;39.470;-0.376;2024-03-23T10:32:12;4.60;;;2.60;;
79124;SDS011;68527;39.470;-0.376;2024-03-23T10:34:39;5.80;;;2.90;;
79124;SDS011;68527;39.470;-0.376;2024-03-23T10:37:05;4.60;;;2.60;;
79124;SDS011;68527;39.470;-0.376;2024-03-23T10:39:40;5.30;;;3.10;;
79124;SDS011;68527;39.470;-0.376;2024-03-23T10:42:09;7.60;;;3.10;;
79124;SDS011;68527;39.470;-0.376;2024-03-23T10:44:35;4.40;;;3.20;;
79124;SDS011;68527;39.470;-0.376;2024-03-23T10:47:02;5.20;;;3.00;;
79124;SDS011;68527;39.470;-0.376;2024-03-23T10:49:28;4.20;;;2.90;;
79124;SDS011;68527;39.470;-0.376;2024-03-23T10:52:05;6.40;;;2.70;;
79124;SDS011;68527;39.470;-0.376;2024-03-23T10:54:31;10.80;;;3.10;;
79124;SDS011;68527;39.470;-0.376;2024-03-23T10:59:36;9.30;;;3.30;;
79124;SDS011;68527;39.470;-0.376;2024-03-23T11:02:03;10.00;;;3.20;;
79124;SDS011;68527;39.470;-0.376;2024-03-23T11:04:29;5.80;;;2.60;;
79124;SDS011;68527;39.470;-0.376;2024-03-23T11:06:56;5.00;;;2.80;;
79124;SDS011;68527;39.470;-0.376;2024-03-23T11:12:36;3.60;;;2.40;;
79124;SDS011;68527;39.470;-0.376;2024-03-23T11:17:29;4.30;;;2.10;;
79124;SDS011;68527;39.470;-0.376;2024-03-23T11:52:26;5.80;;;2.40;;
79124;SDS011;68527;39.470;-0.376;2024-03-23T11:55:02;6.70;;;2.70;;
79124;SDS011;68527;39.470;-0.376;2024-03-23T11:57:29;3.60;;;2.50;;
79124;SDS011;68527;39.470;-0.376;2024-03-23T11:59:55;6.50;;;2.70;;
79124;SDS011;68527;39.470;-0.376;2024-03-23T12:04:46;6.40;;;2.50;;
79124;SDS011;68527;39.470;-0.376;2024-03-23T12:09:47;4.20;;;2.60;;
79124;SDS011;68527;39.470;-0.376;2024-03-23T12:12:27;5.60;;;3.00;;
79124;SDS011;68527;39.470;-0.376;2024-03-23T12:15:03;4.80;;;2.90;;
79124;SDS011;68527;39.470;-0.376;2024-03-23T12:17:33;5.20;;;2.30;;
79124;SDS011;68527;39.470;-0.376;2024-03-23T12:20:00;4.60;;;2.10;;
79124;SDS011;68527;39.470;-0.376;2024-03-23T12:22:26;5.50;;;3.00;;
79124;SDS011;68527;39.470;-0.376;2024-03-23T12:24:52;4.10;;;2.70;;
79124;SDS011;68527;39.470;-0.376;2024-03-23T12:27:18;4.20;;;2.80;;
79124;SDS011;68527;39.470;-0.376;2024-03-23T12:29:44;6.40;;;3.00;;
79124;SDS011;68527;39.470;-0.376;2024-03-23T12:32:12;6.00;;;3.20;;
79124;SDS011;68527;39.470;-0.376;2024-03-23T12:34:38;6.00;;;2.80;;
79124;SDS011;68527;39.470;-0.376;2024-03-23T12:39:31;6.20;;;2.80;;
79124;SDS011;68527;39.470;-0.376;2024-03-23T12:44:22;5.90;;;2.90;;
79124;SDS011;68527;39.470;-0.376;2024-03-23T12:46:48;7.30;;;3.00;;
79124;SDS011;68527;39.470;-0.376;2024-03-23T12:49:13;8.20;;;3.30;;
79124;SDS011;68527;39.470;-0.376;2024-03-23T12:51:39;5.70;;;3.30;;
79124;SDS011;68527;39.470;-0.376;2024-03-23T12:54:04;8.20;;;2.90;;
79124;SDS011;68527;39.470;-0.376;2024-03-23T12:56:30;6.30;;;2.70;;
79124;SDS011;68527;39.470;-0.376;2024-03-23T13:01:25;6.00;;;2.80;;
79124;SDS011;68527;39.470;-0.376;2024-03-23T13:03:51;6.20;;;3.20;;
79124;SDS011;68527;39.470;-0.376;2024-03-23T13:08:46;6.70;;;3.10;;
79124;SDS011;68527;39.470;-0.376;2024-03-23T13:11:12;6.50;;;2.90;;
79124;SDS011;68527;39.470;-0.376;2024-03-23T13:13:39;7.00;;;2.80;;
79124;SDS011;68527;39.470;-0.376;2024-03-23T13:16:05;6.70;;;3.00;;
79124;SDS011;68527;39.470;-0.376;2024-03-23T13:18:31;7.10;;;3.30;;
79124;SDS011;68527;39.470;-0.376;2024-03-23T13:20:57;8.00;;;2.90;;
79124;SDS011;68527;39.470;-0.376;2024-03-23T13:23:23;10.50;;;3.20;;
79124;SDS011;68527;39.470;-0.376;2024-03-23T13:28:15;7.50;;;2.80;;
79124;SDS011;68527;39.470;-0.376;2024-03-23T13:30:49;7.10;;;3.70;;
79124;SDS011;68527;39.470;-0.376;2024-03-23T13:33:18;6.10;;;3.20;;
79124;SDS011;68527;39.470;-0.376;2024-03-23T13:35:50;7.00;;;2.80;;
79124;SDS011;68527;39.470;-0.376;2024-03-23T13:38:16;7.10;;;3.10;;
79124;SDS011;68527;39.470;-0.376;2024-03-23T13:43:21;5.60;;;2.90;;
79124;SDS011;68527;39.470;-0.376;2024-03-23T13:45:47;6.70;;;3.50;;
79124;SDS011;68527;39.470;-0.376;2024-03-23T13:48:14;9.60;;;3.70;;
79124;SDS011;68527;39.470;-0.376;2024-03-23T13:50:40;6.70;;;3.00;;
79124;SDS011;68527;39.470;-0.376;2024-03-23T13:55:31;8.60;;;3.20;;
79124;SDS011;68527;39.470;-0.376;2024-03-23T13:57:57;5.70;;;3.30;;
79124;SDS011;68527;39.470;-0.376;2024-03-23T14:00:23;6.40;;;3.20;;
79124;SDS011;68527;39.470;-0.376;2024-03-23T14:02:48;5.50;;;3.10;;
79124;SDS011;68527;39.470;-0.376;2024-03-23T14:05:14;7.00;;;3.40;;
79124;SDS011;68527;39.470;-0.376;2024-03-23T14:07:40;5.30;;;2.80;;
79124;SDS011;68527;39.470;-0.376;2024-03-23T14:10:06;7.80;;;3.30;;
79124;SDS011;68527;39.470;-0.376;2024-03-23T14:12:32;6.80;;;3.70;;
79124;SDS011;68527;39.470;-0.376;2024-03-23T14:14:58;6.70;;;3.00;;
79124;SDS011;68527;39.470;-0.376;2024-03-23T14:17:28;8.10;;;2.90;;
79124;SDS011;68527;39.470;-0.376;2024-03-23T14:19:53;7.40;;;3.50;;
79124;SDS011;68527;39.470;-0.376;2024-03-23T14:22:21;5.00;;;2.90;;
79124;SDS011;68527;39.470;-0.376;2024-03-23T14:24:48;4.70;;;2.90;;
79124;SDS011;68527;39.470;-0.376;2024-03-23T14:27:16;7.20;;;3.20;;
79124;SDS011;68527;39.470;-0.376;2024-03-23T14:29:45;5.70;;;2.90;;
79124;SDS011;68527;39.470;-0.376;2024-03-23T14:32:12;7.50;;;3.10;;
79124;SDS011;68527;39.470;-0.376;2024-03-23T14:34:37;8.50;;;2.90;;
79124;SDS011;68527;39.470;-0.376;2024-03-23T14:37:03;6.10;;;3.10;;
79124;SDS011;68527;39.470;-0.376;2024-03-23T14:39:30;8.40;;;2.70;;
79124;SDS011;68527;39.470;-0.376;2024-03-23T14:41:56;4.70;;;2.80;;
79124;SDS011;68527;39.470;-0.376;2024-03-23T14:44:22;6.70;;;2.60;;
79124;SDS011;68527;39.470;-0.376;2024-03-23T14:49:14;4.00;;;2.30;;
79124;SDS011;68527;39.470;-0.376;2024-03-23T14:51:43;6.50;;;2.40;;
79124;SDS011;68527;39.470;-0.376;2024-03-23T14:54:08;6.70;;;2.50;;
79124;SDS011;68527;39.470;-0.376;2024-03-23T14:56:35;6.90;;;3.10;;
79124;SDS011;68527;39.470;-0.376;2024-03-23T14:59:01;8.00;;;3.60;;
79124;SDS011;68527;39.470;-0.376;2024-03-23T15:01:27;5.20;;;2.70;;
79124;SDS011;68527;39.470;-0.376;2024-03-23T15:03:53;7.30;;;3.00;;
79124;SDS011;68527;39.470;-0.376;2024-03-23T15:06:19;6.10;;;2.20;;
79124;SDS011;68527;39.470;-0.376;2024-03-23T15:11:10;3.90;;;2.40;;
79124;SDS011;68527;39.470;-0.376;2024-03-23T15:16:01;6.40;;;2.70;;
79124;SDS011;68527;39.470;-0.376;2024-03-23T15:18:29;7.90;;;2.70;;
79124;SDS011;68527;39.470;-0.376;2024-03-23T15:20:58;8.50;;;2.60;;
79124;SDS011;68527;39.470;-0.376;2024-03-23T15:23:28;5.60;;;2.90;;
79124;SDS011;68527;39.470;-0.376;2024-03-23T15:25:55;7.10;;;2.70;;
79124;SDS011;68527;39.470;-0.376;2024-03-23T15:28:21;8.30;;;2.80;;
79124;SDS011;68527;39.470;-0.376;2024-03-23T15:30:47;8.20;;;3.20;;
79124;SDS011;68527;39.470;-0.376;2024-03-23T15:33:13;12.70;;;3.60;;
79124;SDS011;68527;39.470;-0.376;2024-03-23T15:35:38;8.90;;;3.20;;
79124;SDS011;68527;39.470;-0.376;2024-03-23T15:38:04;7.00;;;2.70;;
79124;SDS011;68527;39.470;-0.376;2024-03-23T15:40:29;3.90;;;2.40;;
79124;SDS011;68527;39.470;-0.376;2024-03-23T15:45:20;6.40;;;2.40;;
79124;SDS011;68527;39.470;-0.376;2024-03-23T15:47:47;7.30;;;2.60;;
79124;SDS011;68527;39.470;-0.376;2024-03-23T15:52:38;7.20;;;2.50;;
79124;SDS011;68527;39.470;-0.376;2024-03-23T15:55:03;7.30;;;2.70;;
79124;SDS011;68527;39.470;-0.376;2024-03-23T15:57:36;7.10;;;3.00;;
79124;SDS011;68527;39.470;-0.376;2024-03-23T16:00:02;7.20;;;2.60;;
79124;SDS011;68527;39.470;-0.376;2024-03-23T16:02:28;4.60;;;2.20;;
79124;SDS011;68527;39.470;-0.376;2024-03-23T16:04:54;5.60;;;2.60;;
79124;SDS011;68527;39.470;-0.376;2024-03-23T16:07:20;6.40;;;2.30;;
79124;SDS011;68527;39.470;-0.376;2024-03-23T16:09:46;5.80;;;2.50;;
79124;SDS011;68527;39.470;-0.376;2024-03-23T16:12:12;7.70;;;2.50;;
79124;SDS011;68527;39.470;-0.376;2024-03-23T16:14:37;5.70;;;2.70;;
79124;SDS011;68527;39.470;-0.376;2024-03-23T16:17:03;5.90;;;2.80;;
79124;SDS011;68527;39.470;-0.376;2024-03-23T16:21:54;4.90;;;2.60;;
79124;SDS011;68527;39.470;-0.376;2024-03-23T16:24:20;6.30;;;2.40;;
79124;SDS011;68527;39.470;-0.376;2024-03-23T16:26:46;4.30;;;2.40;;
79124;SDS011;68527;39.470;-0.376;2024-03-23T16:31:37;6.20;;;2.80;;
79124;SDS011;68527;39.470;-0.376;2024-03-23T16:34:03;5.80;;;2.40;;
79124;SDS011;68527;39.470;-0.376;2024-03-23T16:36:29;7.40;;;2.90;;
79124;SDS011;68527;39.470;-0.376;2024-03-23T16:38:55;4.30;;;2.40;;
79124;SDS011;68527;39.470;-0.376;2024-03-23T16:43:46;4.30;;;2.10;;
79124;SDS011;68527;39.470;-0.376;2024-03-23T16:46:13;3.40;;;2.00;;
79124;SDS011;68527;39.470;-0.376;2024-03-23T16:48:41;4.00;;;2.20;;
79124;SDS011;68527;39.470;-0.376;2024-03-23T16:51:08;3.80;;;2.30;;
79124;SDS011;68527;39.470;-0.376;2024-03-23T16:53:34;5.10;;;2.30;;
79124;SDS011;68527;39.470;-0.376;2024-03-23T16:56:01;6.10;;;2.20;;
79124;SDS011;68527;39.470;-0.376;2024-03-23T16:58:29;3.90;;;2.00;;
79124;SDS011;68527;39.470;-0.376;2024-03-23T17:00:55;4.30;;;1.90;;
79124;SDS011;68527;39.470;-0.376;2024-03-23T17:03:25;5.30;;;2.30;;
79124;SDS011;68527;39.470;-0.376;2024-03-23T17:05:51;4.40;;;2.00;;
79124;SDS011;68527;39.470;-0.376;2024-03-23T17:08:18;3.50;;;2.20;;
79124;SDS011;68527;39.470;-0.376;2024-03-23T17:10:44;4.40;;;2.50;;
79124;SDS011;68527;39.470;-0.376;2024-03-23T17:13:11;2.50;;;1.60;;
79124;SDS011;68527;39.470;-0.376;2024-03-23T17:15:46;4.20;;;2.10;;
79124;SDS011;68527;39.470;-0.376;2024-03-23T17:18:12;3.70;;;2.10;;
79124;SDS011;68527;39.470;-0.376;2024-03-23T17:20:38;3.70;;;1.90;;
79124;SDS011;68527;39.470;-0.376;2024-03-23T17:23:04;3.50;;;2.20;;
79124;SDS011;68527;39.470;-0.376;2024-03-23T17:25:30;3.90;;;2.00;;
79124;SDS011;68527;39.470;-0.376;2024-03-23T17:27:56;4.70;;;2.20;;
79124;SDS011;68527;39.470;-0.376;2024-03-23T17:30:21;5.90;;;2.10;;
79124;SDS011;68527;39.470;-0.376;2024-03-23T17:32:47;3.60;;;1.80;;
79124;SDS011;68527;39.470;-0.376;2024-03-23T17:35:12;3.70;;;1.90;;
79124;SDS011;68527;39.470;-0.376;2024-03-23T17:37:39;4.30;;;1.90;;
79124;SDS011;68527;39.470;-0.376;2024-03-23T17:40:06;4.60;;;2.10;;
79124;SDS011;68527;39.470;-0.376;2024-03-23T17:42:37;3.60;;;2.30;;
79124;SDS011;68527;39.470;-0.376;2024-03-23T17:45:04;3.30;;;1.90;;
79124;SDS011;68527;39.470;-0.376;2024-03-23T17:47:34;3.10;;;2.20;;
79124;SDS011;68527;39.470;-0.376;2024-03-23T17:50:01;3.50;;;1.90;;
79124;SDS011;68527;39.470;-0.376;2024-03-23T17:52:27;4.00;;;1.80;;